sensor_id;sensor_type;location;lat;lon;timestamp;temperature;humidity
55036;DHT22;40936;53.008;6.556;2022-10-31T00:00:50;16.70;99.90
55036;DHT22;40936;53.008;6.556;2022-10-31T00:03:16;16.70;99.90
55036;DHT22;40936;53.008;6.556;2022-10-31T00:05:44;16.70;99.90
55036;DHT22;40936;53.008;6.556;2022-10-31T00:08:10;16.70;99.90
55036;DHT22;40936;53.008;6.556;2022-10-31T00:10:39;16.80;99.90
55036;DHT22;40936;53.008;6.556;2022-10-31T00:13:06;16.70;99.90
55036;DHT22;40936;53.008;6.556;2022-10-31T00:15:35;16.60;99.90
55036;DHT22;40936;53.008;6.556;2022-10-31T00:18:02;16.70;99.90
55036;DHT22;40936;53.008;6.556;2022-10-31T00:20:29;16.70;99.90
55036;DHT22;40936;53.008;6.556;2022-10-31T00:22:58;16.70;1.00
55036;DHT22;40936;53.008;6.556;2022-10-31T00:25:23;16.70;99.90
55036;DHT22;40936;53.008;6.556;2022-10-31T00:27:49;16.60;99.90
55036;DHT22;40936;53.008;6.556;2022-10-31T00:30:15;16.60;99.90
55036;DHT22;40936;53.008;6.556;2022-10-31T00:32:41;16.60;1.00
55036;DHT22;40936;53.008;6.556;2022-10-31T00:35:06;16.60;1.00
55036;DHT22;40936;53.008;6.556;2022-10-31T00:37:32;16.60;1.00
55036;DHT22;40936;53.008;6.556;2022-10-31T00:39:58;16.60;1.00
55036;DHT22;40936;53.008;6.556;2022-10-31T00:42:24;16.50;1.00
55036;DHT22;40936;53.008;6.556;2022-10-31T00:44:50;16.50;1.00
55036;DHT22;40936;53.008;6.556;2022-10-31T00:47:15;16.40;1.00
55036;DHT22;40936;53.008;6.556;2022-10-31T00:49:41;16.50;31.60
55036;DHT22;40936;53.008;6.556;2022-10-31T00:52:07;16.50;52.40
55036;DHT22;40936;53.008;6.556;2022-10-31T00:54:33;16.50;99.90
55036;DHT22;40936;53.008;6.556;2022-10-31T00:56:58;16.50;66.80
55036;DHT22;40936;53.008;6.556;2022-10-31T00:59:24;16.60;53.00
55036;DHT22;40936;53.008;6.556;2022-10-31T01:01:49;16.40;53.10
55036;DHT22;40936;53.008;6.556;2022-10-31T01:04:15;16.40;99.90
55036;DHT22;40936;53.008;6.556;2022-10-31T01:06:41;16.40;99.90
55036;DHT22;40936;53.008;6.556;2022-10-31T01:09:07;16.40;99.90
55036;DHT22;40936;53.008;6.556;2022-10-31T01:11:33;16.40;99.90
55036;DHT22;40936;53.008;6.556;2022-10-31T01:13:58;16.40;99.90
55036;DHT22;40936;53.008;6.556;2022-10-31T01:16:26;16.40;99.90
55036;DHT22;40936;53.008;6.556;2022-10-31T01:18:52;16.50;99.90
55036;DHT22;40936;53.008;6.556;2022-10-31T01:21:27;16.50;99.90
55036;DHT22;40936;53.008;6.556;2022-10-31T01:23:54;16.50;1.00
55036;DHT22;40936;53.008;6.556;2022-10-31T01:26:22;16.50;1.00
55036;DHT22;40936;53.008;6.556;2022-10-31T01:28:51;16.50;1.00
55036;DHT22;40936;53.008;6.556;2022-10-31T01:31:18;16.50;1.00
55036;DHT22;40936;53.008;6.556;2022-10-31T01:33:48;16.50;1.00
55036;DHT22;40936;53.008;6.556;2022-10-31T01:38:50;16.60;28.80
55036;DHT22;40936;53.008;6.556;2022-10-31T01:41:19;16.60;99.90
55036;DHT22;40936;53.008;6.556;2022-10-31T01:46:48;16.60;99.90
55036;DHT22;40936;53.008;6.556;2022-10-31T01:49:24;16.60;99.90
55036;DHT22;40936;53.008;6.556;2022-10-31T01:52:06;16.60;99.90
55036;DHT22;40936;53.008;6.556;2022-10-31T01:54:37;16.60;99.90
55036;DHT22;40936;53.008;6.556;2022-10-31T01:57:05;16.50;99.90
55036;DHT22;40936;53.008;6.556;2022-10-31T01:59:35;16.50;99.90
55036;DHT22;40936;53.008;6.556;2022-10-31T02:02:01;16.50;99.90
55036;DHT22;40936;53.008;6.556;2022-10-31T02:04:27;16.50;99.90
55036;DHT22;40936;53.008;6.556;2022-10-31T02:07:09;16.40;99.90
55036;DHT22;40936;53.008;6.556;2022-10-31T02:09:37;16.40;99.90
55036;DHT22;40936;53.008;6.556;2022-10-31T02:12:03;16.40;99.90
55036;DHT22;40936;53.008;6.556;2022-10-31T02:14:30;16.40;1.00
55036;DHT22;40936;53.008;6.556;2022-10-31T02:16:57;16.40;1.00
55036;DHT22;40936;53.008;6.556;2022-10-31T02:22:19;16.40;1.00
55036;DHT22;40936;53.008;6.556;2022-10-31T02:27:55;16.40;80.50
55036;DHT22;40936;53.008;6.556;2022-10-31T02:30:24;16.40;43.20
55036;DHT22;40936;53.008;6.556;2022-10-31T02:38:41;16.20;99.90
55036;DHT22;40936;53.008;6.556;2022-10-31T02:41:26;16.30;99.90
55036;DHT22;40936;53.008;6.556;2022-10-31T02:47:08;16.20;99.90
55036;DHT22;40936;53.008;6.556;2022-10-31T02:52:25;16.20;99.90
55036;DHT22;40936;53.008;6.556;2022-10-31T02:54:51;16.20;99.90
55036;DHT22;40936;53.008;6.556;2022-10-31T02:57:27;16.20;99.90
55036;DHT22;40936;53.008;6.556;2022-10-31T03:00:02;16.20;99.90
55036;DHT22;40936;53.008;6.556;2022-10-31T03:08:09;16.20;99.90
55036;DHT22;40936;53.008;6.556;2022-10-31T03:11:10;16.20;99.90
55036;DHT22;40936;53.008;6.556;2022-10-31T03:16:25;16.10;99.90
55036;DHT22;40936;53.008;6.556;2022-10-31T03:19:11;16.00;99.90
55036;DHT22;40936;53.008;6.556;2022-10-31T03:21:42;15.90;99.90
55036;DHT22;40936;53.008;6.556;2022-10-31T03:24:10;15.90;99.90
55036;DHT22;40936;53.008;6.556;2022-10-31T03:26:40;15.90;1.00
55036;DHT22;40936;53.008;6.556;2022-10-31T03:29:09;16.60;1.00
55036;DHT22;40936;53.008;6.556;2022-10-31T03:31:49;16.00;1.00
55036;DHT22;40936;53.008;6.556;2022-10-31T03:34:18;15.90;1.00
55036;DHT22;40936;53.008;6.556;2022-10-31T03:36:45;15.90;41.20
55036;DHT22;40936;53.008;6.556;2022-10-31T03:39:14;16.00;21.80
55036;DHT22;40936;53.008;6.556;2022-10-31T03:41:47;15.90;33.80
55036;DHT22;40936;53.008;6.556;2022-10-31T03:44:17;15.80;47.40
55036;DHT22;40936;53.008;6.556;2022-10-31T03:46:44;15.80;74.90
55036;DHT22;40936;53.008;6.556;2022-10-31T03:49:11;15.80;92.50
55036;DHT22;40936;53.008;6.556;2022-10-31T03:54:45;15.90;99.90
55036;DHT22;40936;53.008;6.556;2022-10-31T03:57:33;15.80;99.90
55036;DHT22;40936;53.008;6.556;2022-10-31T04:00:19;15.80;99.90
55036;DHT22;40936;53.008;6.556;2022-10-31T04:02:57;15.80;99.90
55036;DHT22;40936;53.008;6.556;2022-10-31T04:05:24;15.80;99.90
55036;DHT22;40936;53.008;6.556;2022-10-31T04:07:53;15.90;99.90
55036;DHT22;40936;53.008;6.556;2022-10-31T04:10:21;15.80;99.90
55036;DHT22;40936;53.008;6.556;2022-10-31T04:12:53;15.80;99.90
55036;DHT22;40936;53.008;6.556;2022-10-31T04:15:22;16.10;99.90
55036;DHT22;40936;53.008;6.556;2022-10-31T04:17:50;15.80;99.90
55036;DHT22;40936;53.008;6.556;2022-10-31T04:20:17;15.80;99.90
55036;DHT22;40936;53.008;6.556;2022-10-31T04:22:43;15.70;99.90
55036;DHT22;40936;53.008;6.556;2022-10-31T04:25:09;15.80;99.90
55036;DHT22;40936;53.008;6.556;2022-10-31T04:27:35;15.60;99.90
55036;DHT22;40936;53.008;6.556;2022-10-31T04:30:00;15.70;99.90
55036;DHT22;40936;53.008;6.556;2022-10-31T04:32:26;15.60;99.90
55036;DHT22;40936;53.008;6.556;2022-10-31T04:34:52;15.70;99.90
55036;DHT22;40936;53.008;6.556;2022-10-31T04:37:17;15.60;99.90
55036;DHT22;40936;53.008;6.556;2022-10-31T04:39:43;15.50;99.90
55036;DHT22;40936;53.008;6.556;2022-10-31T04:42:09;15.40;99.90
55036;DHT22;40936;53.008;6.556;2022-10-31T04:44:34;15.40;99.90
55036;DHT22;40936;53.008;6.556;2022-10-31T04:47:00;15.40;99.90
55036;DHT22;40936;53.008;6.556;2022-10-31T04:49:26;15.40;99.90
55036;DHT22;40936;53.008;6.556;2022-10-31T04:51:51;15.30;99.90
55036;DHT22;40936;53.008;6.556;2022-10-31T04:54:17;15.20;99.90
55036;DHT22;40936;53.008;6.556;2022-10-31T04:56:43;15.30;99.90
55036;DHT22;40936;53.008;6.556;2022-10-31T04:59:08;15.20;99.90
55036;DHT22;40936;53.008;6.556;2022-10-31T05:01:34;15.40;1.00
55036;DHT22;40936;53.008;6.556;2022-10-31T05:03:59;15.10;1.00
55036;DHT22;40936;53.008;6.556;2022-10-31T05:06:25;15.10;1.00
55036;DHT22;40936;53.008;6.556;2022-10-31T05:08:51;15.10;1.00
55036;DHT22;40936;53.008;6.556;2022-10-31T05:11:16;15.00;1.00
55036;DHT22;40936;53.008;6.556;2022-10-31T05:13:42;15.00;1.00
55036;DHT22;40936;53.008;6.556;2022-10-31T05:16:07;14.90;1.00
55036;DHT22;40936;53.008;6.556;2022-10-31T05:18:33;14.90;1.00
55036;DHT22;40936;53.008;6.556;2022-10-31T05:20:59;14.90;1.00
55036;DHT22;40936;53.008;6.556;2022-10-31T05:23:24;14.90;1.00
55036;DHT22;40936;53.008;6.556;2022-10-31T05:25:50;14.80;1.00
55036;DHT22;40936;53.008;6.556;2022-10-31T05:28:16;14.90;1.00
55036;DHT22;40936;53.008;6.556;2022-10-31T05:30:41;14.80;1.00
55036;DHT22;40936;53.008;6.556;2022-10-31T05:33:07;14.80;18.60
55036;DHT22;40936;53.008;6.556;2022-10-31T05:35:33;14.80;24.70
55036;DHT22;40936;53.008;6.556;2022-10-31T05:37:59;14.80;31.50
55036;DHT22;40936;53.008;6.556;2022-10-31T05:40:26;14.80;59.50
55036;DHT22;40936;53.008;6.556;2022-10-31T05:42:53;14.70;65.90
55036;DHT22;40936;53.008;6.556;2022-10-31T05:45:20;14.80;96.60
55036;DHT22;40936;53.008;6.556;2022-10-31T05:47:59;14.80;99.90
55036;DHT22;40936;53.008;6.556;2022-10-31T05:50:28;14.90;99.90
55036;DHT22;40936;53.008;6.556;2022-10-31T05:52:59;14.90;99.90
55036;DHT22;40936;53.008;6.556;2022-10-31T05:55:25;14.80;99.90
55036;DHT22;40936;53.008;6.556;2022-10-31T05:57:52;14.80;99.90
55036;DHT22;40936;53.008;6.556;2022-10-31T06:00:18;14.80;99.90
55036;DHT22;40936;53.008;6.556;2022-10-31T06:02:44;14.80;99.90
55036;DHT22;40936;53.008;6.556;2022-10-31T06:05:10;14.90;99.90
55036;DHT22;40936;53.008;6.556;2022-10-31T06:07:36;14.70;99.90
55036;DHT22;40936;53.008;6.556;2022-10-31T06:10:04;14.60;99.90
55036;DHT22;40936;53.008;6.556;2022-10-31T06:12:31;14.40;99.90
55036;DHT22;40936;53.008;6.556;2022-10-31T06:14:57;14.60;99.90
55036;DHT22;40936;53.008;6.556;2022-10-31T06:17:22;14.60;99.90
55036;DHT22;40936;53.008;6.556;2022-10-31T06:19:48;14.60;99.90
55036;DHT22;40936;53.008;6.556;2022-10-31T06:22:14;14.60;99.90
55036;DHT22;40936;53.008;6.556;2022-10-31T06:24:40;14.60;99.90
55036;DHT22;40936;53.008;6.556;2022-10-31T06:27:06;14.70;99.90
55036;DHT22;40936;53.008;6.556;2022-10-31T06:29:32;14.60;99.90
55036;DHT22;40936;53.008;6.556;2022-10-31T06:31:58;14.60;99.90
55036;DHT22;40936;53.008;6.556;2022-10-31T06:34:23;14.60;99.90
55036;DHT22;40936;53.008;6.556;2022-10-31T06:36:49;14.60;99.90
55036;DHT22;40936;53.008;6.556;2022-10-31T06:39:15;14.60;99.90
55036;DHT22;40936;53.008;6.556;2022-10-31T06:41:41;14.60;99.90
55036;DHT22;40936;53.008;6.556;2022-10-31T06:44:07;14.60;99.90
55036;DHT22;40936;53.008;6.556;2022-10-31T06:46:33;14.70;99.90
55036;DHT22;40936;53.008;6.556;2022-10-31T06:48:59;14.80;99.90
55036;DHT22;40936;53.008;6.556;2022-10-31T06:51:25;14.80;99.90
55036;DHT22;40936;53.008;6.556;2022-10-31T06:53:51;14.80;99.90
55036;DHT22;40936;53.008;6.556;2022-10-31T06:56:16;14.90;99.90
55036;DHT22;40936;53.008;6.556;2022-10-31T06:58:42;15.00;99.90
55036;DHT22;40936;53.008;6.556;2022-10-31T07:01:08;15.10;99.90
55036;DHT22;40936;53.008;6.556;2022-10-31T07:03:33;15.20;99.90
55036;DHT22;40936;53.008;6.556;2022-10-31T07:05:59;15.30;99.90
55036;DHT22;40936;53.008;6.556;2022-10-31T07:08:25;15.40;99.90
55036;DHT22;40936;53.008;6.556;2022-10-31T07:10:53;15.40;99.90
55036;DHT22;40936;53.008;6.556;2022-10-31T07:13:20;15.50;99.90
55036;DHT22;40936;53.008;6.556;2022-10-31T07:15:52;15.70;99.90
55036;DHT22;40936;53.008;6.556;2022-10-31T07:18:19;15.70;99.90
55036;DHT22;40936;53.008;6.556;2022-10-31T07:20:45;15.60;99.90
55036;DHT22;40936;53.008;6.556;2022-10-31T07:23:11;15.60;99.90
55036;DHT22;40936;53.008;6.556;2022-10-31T07:25:41;15.60;99.90
55036;DHT22;40936;53.008;6.556;2022-10-31T07:28:07;15.60;99.90
55036;DHT22;40936;53.008;6.556;2022-10-31T07:30:33;15.60;99.90
55036;DHT22;40936;53.008;6.556;2022-10-31T07:32:59;15.80;99.90
55036;DHT22;40936;53.008;6.556;2022-10-31T07:35:26;15.70;99.90
55036;DHT22;40936;53.008;6.556;2022-10-31T07:37:52;15.80;99.90
55036;DHT22;40936;53.008;6.556;2022-10-31T07:40:19;15.90;99.90
55036;DHT22;40936;53.008;6.556;2022-10-31T07:42:47;15.90;99.90
55036;DHT22;40936;53.008;6.556;2022-10-31T07:45:16;16.10;99.90
55036;DHT22;40936;53.008;6.556;2022-10-31T07:47:50;16.10;99.90
55036;DHT22;40936;53.008;6.556;2022-10-31T07:50:21;16.10;99.90
55036;DHT22;40936;53.008;6.556;2022-10-31T07:52:47;16.10;99.90
55036;DHT22;40936;53.008;6.556;2022-10-31T07:55:14;16.20;99.90
55036;DHT22;40936;53.008;6.556;2022-10-31T07:57:40;16.20;99.90
55036;DHT22;40936;53.008;6.556;2022-10-31T08:00:08;16.20;99.90
55036;DHT22;40936;53.008;6.556;2022-10-31T08:02:34;16.30;99.90
55036;DHT22;40936;53.008;6.556;2022-10-31T08:05:00;16.30;99.90
55036;DHT22;40936;53.008;6.556;2022-10-31T08:07:27;16.30;99.90
55036;DHT22;40936;53.008;6.556;2022-10-31T08:09:54;16.30;99.90
55036;DHT22;40936;53.008;6.556;2022-10-31T08:12:20;16.40;99.90
55036;DHT22;40936;53.008;6.556;2022-10-31T08:14:46;16.50;99.90
55036;DHT22;40936;53.008;6.556;2022-10-31T08:17:12;16.50;99.90
55036;DHT22;40936;53.008;6.556;2022-10-31T08:19:38;16.60;99.90
55036;DHT22;40936;53.008;6.556;2022-10-31T08:22:03;16.60;99.90
55036;DHT22;40936;53.008;6.556;2022-10-31T08:24:29;16.70;99.90
55036;DHT22;40936;53.008;6.556;2022-10-31T08:26:55;16.70;99.90
55036;DHT22;40936;53.008;6.556;2022-10-31T08:29:20;16.90;99.90
55036;DHT22;40936;53.008;6.556;2022-10-31T08:31:46;16.80;99.90
55036;DHT22;40936;53.008;6.556;2022-10-31T08:34:11;16.90;99.90
55036;DHT22;40936;53.008;6.556;2022-10-31T08:36:37;16.80;99.90
55036;DHT22;40936;53.008;6.556;2022-10-31T08:39:03;16.90;99.90
55036;DHT22;40936;53.008;6.556;2022-10-31T08:41:29;17.40;99.90
55036;DHT22;40936;53.008;6.556;2022-10-31T08:43:55;17.10;99.90
55036;DHT22;40936;53.008;6.556;2022-10-31T08:46:21;17.10;99.90
55036;DHT22;40936;53.008;6.556;2022-10-31T08:48:49;17.10;99.90
55036;DHT22;40936;53.008;6.556;2022-10-31T08:51:15;17.20;99.90
55036;DHT22;40936;53.008;6.556;2022-10-31T08:53:41;17.20;99.90
55036;DHT22;40936;53.008;6.556;2022-10-31T08:56:06;17.20;99.90
55036;DHT22;40936;53.008;6.556;2022-10-31T08:58:32;17.20;99.90
55036;DHT22;40936;53.008;6.556;2022-10-31T09:00:59;17.20;99.90
55036;DHT22;40936;53.008;6.556;2022-10-31T09:03:28;17.30;99.90
55036;DHT22;40936;53.008;6.556;2022-10-31T09:05:57;17.30;99.90
55036;DHT22;40936;53.008;6.556;2022-10-31T09:08:24;17.30;99.90
55036;DHT22;40936;53.008;6.556;2022-10-31T09:10:50;17.20;99.90
55036;DHT22;40936;53.008;6.556;2022-10-31T09:13:19;17.20;99.90
55036;DHT22;40936;53.008;6.556;2022-10-31T09:15:47;17.30;99.90
55036;DHT22;40936;53.008;6.556;2022-10-31T09:18:14;17.40;99.90
55036;DHT22;40936;53.008;6.556;2022-10-31T09:20:41;17.50;99.90
55036;DHT22;40936;53.008;6.556;2022-10-31T09:23:17;17.50;99.90
55036;DHT22;40936;53.008;6.556;2022-10-31T09:25:44;17.70;99.90
55036;DHT22;40936;53.008;6.556;2022-10-31T09:28:12;17.90;99.90
55036;DHT22;40936;53.008;6.556;2022-10-31T09:30:38;18.00;29.00
55036;DHT22;40936;53.008;6.556;2022-10-31T09:33:11;17.90;1.00
55036;DHT22;40936;53.008;6.556;2022-10-31T09:35:38;17.90;99.90
55036;DHT22;40936;53.008;6.556;2022-10-31T09:38:24;17.90;99.90
55036;DHT22;40936;53.008;6.556;2022-10-31T09:44:04;17.90;99.90
55036;DHT22;40936;53.008;6.556;2022-10-31T09:46:56;17.90;1.00
55036;DHT22;40936;53.008;6.556;2022-10-31T09:52:19;17.80;99.90
55036;DHT22;40936;53.008;6.556;2022-10-31T09:54:54;17.80;99.90
55036;DHT22;40936;53.008;6.556;2022-10-31T09:57:32;17.80;99.90
55036;DHT22;40936;53.008;6.556;2022-10-31T10:00:00;17.90;99.90
55036;DHT22;40936;53.008;6.556;2022-10-31T10:02:37;18.00;99.90
55036;DHT22;40936;53.008;6.556;2022-10-31T10:05:10;18.10;99.90
55036;DHT22;40936;53.008;6.556;2022-10-31T10:07:49;18.10;99.90
55036;DHT22;40936;53.008;6.556;2022-10-31T10:11:19;18.20;99.90
55036;DHT22;40936;53.008;6.556;2022-10-31T10:24:32;18.10;99.90
55036;DHT22;40936;53.008;6.556;2022-10-31T10:27:14;18.10;99.90
55036;DHT22;40936;53.008;6.556;2022-10-31T10:29:52;18.20;99.90
55036;DHT22;40936;53.008;6.556;2022-10-31T10:32:28;18.30;99.90
55036;DHT22;40936;53.008;6.556;2022-10-31T10:35:02;18.30;99.90
55036;DHT22;40936;53.008;6.556;2022-10-31T10:37:34;18.20;99.90
55036;DHT22;40936;53.008;6.556;2022-10-31T10:40:13;18.60;99.90
55036;DHT22;40936;53.008;6.556;2022-10-31T10:42:44;18.30;99.90
55036;DHT22;40936;53.008;6.556;2022-10-31T10:45:29;18.30;99.90
55036;DHT22;40936;53.008;6.556;2022-10-31T10:49:14;18.40;99.90
55036;DHT22;40936;53.008;6.556;2022-10-31T10:51:23;18.60;99.90
55036;DHT22;40936;53.008;6.556;2022-10-31T10:56:44;18.90;99.90
55036;DHT22;40936;53.008;6.556;2022-10-31T10:59:17;19.00;99.90
55036;DHT22;40936;53.008;6.556;2022-10-31T11:01:45;19.00;1.00
55036;DHT22;40936;53.008;6.556;2022-10-31T11:04:33;18.90;99.90
55036;DHT22;40936;53.008;6.556;2022-10-31T11:07:08;18.90;99.90
55036;DHT22;40936;53.008;6.556;2022-10-31T11:09:34;18.90;99.90
55036;DHT22;40936;53.008;6.556;2022-10-31T11:12:18;18.90;99.90
55036;DHT22;40936;53.008;6.556;2022-10-31T11:14:52;19.00;99.90
55036;DHT22;40936;53.008;6.556;2022-10-31T11:17:28;19.10;99.90
55036;DHT22;40936;53.008;6.556;2022-10-31T11:20:34;19.10;99.90
55036;DHT22;40936;53.008;6.556;2022-10-31T11:25:48;19.10;1.00
55036;DHT22;40936;53.008;6.556;2022-10-31T11:28:14;19.20;1.00
55036;DHT22;40936;53.008;6.556;2022-10-31T11:30:49;19.30;1.00
55036;DHT22;40936;53.008;6.556;2022-10-31T11:35:53;19.50;99.90
55036;DHT22;40936;53.008;6.556;2022-10-31T11:38:22;19.70;99.90
55036;DHT22;40936;53.008;6.556;2022-10-31T11:40:58;19.80;99.90
55036;DHT22;40936;53.008;6.556;2022-10-31T11:43:25;19.90;99.90
55036;DHT22;40936;53.008;6.556;2022-10-31T11:45:51;20.10;88.40
55036;DHT22;40936;53.008;6.556;2022-10-31T11:48:23;20.10;1.00
55036;DHT22;40936;53.008;6.556;2022-10-31T11:50:52;20.10;1.00
55036;DHT22;40936;53.008;6.556;2022-10-31T11:53:32;20.20;99.90
55036;DHT22;40936;53.008;6.556;2022-10-31T11:56:13;20.30;99.90
55036;DHT22;40936;53.008;6.556;2022-10-31T11:58:39;20.30;99.90
55036;DHT22;40936;53.008;6.556;2022-10-31T12:01:05;20.30;99.90
55036;DHT22;40936;53.008;6.556;2022-10-31T12:08:43;20.30;1.00
55036;DHT22;40936;53.008;6.556;2022-10-31T12:24:58;20.30;1.00
55036;DHT22;40936;53.008;6.556;2022-10-31T12:30:19;20.30;1.00
55036;DHT22;40936;53.008;6.556;2022-10-31T12:44:09;20.20;1.00
55036;DHT22;40936;53.008;6.556;2022-10-31T12:46:57;20.20;1.00
55036;DHT22;40936;53.008;6.556;2022-10-31T12:49:36;20.20;1.00
55036;DHT22;40936;53.008;6.556;2022-10-31T12:57:58;20.30;99.90
55036;DHT22;40936;53.008;6.556;2022-10-31T13:00:26;20.30;99.90
55036;DHT22;40936;53.008;6.556;2022-10-31T13:05:43;20.40;1.00
55036;DHT22;40936;53.008;6.556;2022-10-31T13:08:26;20.30;1.00
55036;DHT22;40936;53.008;6.556;2022-10-31T13:11:29;20.30;99.90
55036;DHT22;40936;53.008;6.556;2022-10-31T13:16:47;20.30;99.90
55036;DHT22;40936;53.008;6.556;2022-10-31T13:19:26;20.30;99.90
55036;DHT22;40936;53.008;6.556;2022-10-31T13:22:13;20.30;99.90
55036;DHT22;40936;53.008;6.556;2022-10-31T13:30:28;20.40;99.90
55036;DHT22;40936;53.008;6.556;2022-10-31T13:43:23;20.40;99.90
55036;DHT22;40936;53.008;6.556;2022-10-31T13:45:54;20.40;99.90
55036;DHT22;40936;53.008;6.556;2022-10-31T13:48:33;20.30;99.90
55036;DHT22;40936;53.008;6.556;2022-10-31T13:51:02;20.30;99.90
55036;DHT22;40936;53.008;6.556;2022-10-31T13:56:18;20.10;99.90
55036;DHT22;40936;53.008;6.556;2022-10-31T14:01:35;20.00;99.90
55036;DHT22;40936;53.008;6.556;2022-10-31T14:04:06;19.90;99.90
55036;DHT22;40936;53.008;6.556;2022-10-31T14:09:39;19.90;99.90
55036;DHT22;40936;53.008;6.556;2022-10-31T14:12:40;19.80;99.90
55036;DHT22;40936;53.008;6.556;2022-10-31T14:17:54;19.70;99.90
55036;DHT22;40936;53.008;6.556;2022-10-31T14:20:34;19.70;99.90
55036;DHT22;40936;53.008;6.556;2022-10-31T14:23:32;19.70;99.90
55036;DHT22;40936;53.008;6.556;2022-10-31T14:26:18;19.60;99.90
55036;DHT22;40936;53.008;6.556;2022-10-31T14:28:45;19.70;99.90
55036;DHT22;40936;53.008;6.556;2022-10-31T14:34:34;19.70;1.00
55036;DHT22;40936;53.008;6.556;2022-10-31T14:39:47;19.70;1.00
55036;DHT22;40936;53.008;6.556;2022-10-31T14:50:29;19.70;1.00
55036;DHT22;40936;53.008;6.556;2022-10-31T14:52:57;19.70;1.00
55036;DHT22;40936;53.008;6.556;2022-10-31T14:55:26;19.70;1.00
55036;DHT22;40936;53.008;6.556;2022-10-31T14:57:59;19.60;1.00
55036;DHT22;40936;53.008;6.556;2022-10-31T15:00:27;19.60;1.00
55036;DHT22;40936;53.008;6.556;2022-10-31T15:03:04;19.60;1.00
55036;DHT22;40936;53.008;6.556;2022-10-31T15:05:32;19.50;17.20
55036;DHT22;40936;53.008;6.556;2022-10-31T15:08:00;19.40;40.20
55036;DHT22;40936;53.008;6.556;2022-10-31T15:10:29;19.40;58.80
55036;DHT22;40936;53.008;6.556;2022-10-31T15:13:09;19.30;45.60
55036;DHT22;40936;53.008;6.556;2022-10-31T15:15:35;19.30;83.10
55036;DHT22;40936;53.008;6.556;2022-10-31T15:18:04;19.30;90.60
55036;DHT22;40936;53.008;6.556;2022-10-31T15:20:36;19.20;99.90
55036;DHT22;40936;53.008;6.556;2022-10-31T15:23:03;19.20;99.90
55036;DHT22;40936;53.008;6.556;2022-10-31T15:25:33;19.20;99.90
55036;DHT22;40936;53.008;6.556;2022-10-31T15:27:59;19.10;99.90
55036;DHT22;40936;53.008;6.556;2022-10-31T15:30:27;19.10;99.90
55036;DHT22;40936;53.008;6.556;2022-10-31T15:32:54;19.10;99.90
55036;DHT22;40936;53.008;6.556;2022-10-31T15:35:28;19.10;99.90
55036;DHT22;40936;53.008;6.556;2022-10-31T15:37:55;19.00;99.90
55036;DHT22;40936;53.008;6.556;2022-10-31T15:40:23;18.90;99.90
55036;DHT22;40936;53.008;6.556;2022-10-31T15:43:07;18.90;99.90
55036;DHT22;40936;53.008;6.556;2022-10-31T15:45:34;18.80;99.90
55036;DHT22;40936;53.008;6.556;2022-10-31T15:48:03;18.70;99.90
55036;DHT22;40936;53.008;6.556;2022-10-31T15:50:50;18.70;99.90
55036;DHT22;40936;53.008;6.556;2022-10-31T15:53:26;18.60;99.90
55036;DHT22;40936;53.008;6.556;2022-10-31T15:55:59;18.50;99.90
55036;DHT22;40936;53.008;6.556;2022-10-31T15:58:26;18.40;99.90
55036;DHT22;40936;53.008;6.556;2022-10-31T16:01:02;18.40;99.90
55036;DHT22;40936;53.008;6.556;2022-10-31T16:03:30;18.30;1.00
55036;DHT22;40936;53.008;6.556;2022-10-31T16:05:59;18.30;1.00
55036;DHT22;40936;53.008;6.556;2022-10-31T16:08:31;18.30;1.00
55036;DHT22;40936;53.008;6.556;2022-10-31T16:13:34;18.20;1.00
55036;DHT22;40936;53.008;6.556;2022-10-31T16:16:12;18.20;1.00
55036;DHT22;40936;53.008;6.556;2022-10-31T16:18:40;18.20;1.00
55036;DHT22;40936;53.008;6.556;2022-10-31T16:21:08;18.10;20.80
55036;DHT22;40936;53.008;6.556;2022-10-31T16:23:34;18.10;8.90
55036;DHT22;40936;53.008;6.556;2022-10-31T16:26:06;18.10;12.00
55036;DHT22;40936;53.008;6.556;2022-10-31T16:28:32;18.10;17.80
55036;DHT22;40936;53.008;6.556;2022-10-31T16:30:58;18.10;5.70
55036;DHT22;40936;53.008;6.556;2022-10-31T16:33:33;18.00;1.00
55036;DHT22;40936;53.008;6.556;2022-10-31T16:36:13;18.00;1.00
55036;DHT22;40936;53.008;6.556;2022-10-31T16:38:46;18.00;1.00
55036;DHT22;40936;53.008;6.556;2022-10-31T16:41:12;17.90;1.00
55036;DHT22;40936;53.008;6.556;2022-10-31T16:43:38;17.80;12.50
55036;DHT22;40936;53.008;6.556;2022-10-31T16:46:03;17.90;35.10
55036;DHT22;40936;53.008;6.556;2022-10-31T16:48:29;17.90;55.70
55036;DHT22;40936;53.008;6.556;2022-10-31T16:50:55;17.90;91.70
55036;DHT22;40936;53.008;6.556;2022-10-31T16:53:20;17.90;99.90
55036;DHT22;40936;53.008;6.556;2022-10-31T16:55:54;17.90;99.90
55036;DHT22;40936;53.008;6.556;2022-10-31T16:58:25;17.90;99.90
55036;DHT22;40936;53.008;6.556;2022-10-31T17:00:52;17.90;99.90
55036;DHT22;40936;53.008;6.556;2022-10-31T17:03:18;17.90;99.90
55036;DHT22;40936;53.008;6.556;2022-10-31T17:05:44;17.90;99.90
55036;DHT22;40936;53.008;6.556;2022-10-31T17:08:10;17.90;99.90
55036;DHT22;40936;53.008;6.556;2022-10-31T17:10:36;17.80;99.90
55036;DHT22;40936;53.008;6.556;2022-10-31T17:13:03;17.80;99.90
55036;DHT22;40936;53.008;6.556;2022-10-31T17:15:37;17.80;99.90
55036;DHT22;40936;53.008;6.556;2022-10-31T17:18:06;17.80;99.90
55036;DHT22;40936;53.008;6.556;2022-10-31T17:20:32;17.80;99.90
55036;DHT22;40936;53.008;6.556;2022-10-31T17:22:58;17.80;99.90
55036;DHT22;40936;53.008;6.556;2022-10-31T17:25:29;17.80;99.90
55036;DHT22;40936;53.008;6.556;2022-10-31T17:27:56;17.80;99.90
55036;DHT22;40936;53.008;6.556;2022-10-31T17:30:22;17.80;99.90
55036;DHT22;40936;53.008;6.556;2022-10-31T17:32:49;17.80;99.90
55036;DHT22;40936;53.008;6.556;2022-10-31T17:35:16;17.80;99.90
55036;DHT22;40936;53.008;6.556;2022-10-31T17:37:42;17.80;99.90
55036;DHT22;40936;53.008;6.556;2022-10-31T17:40:14;17.70;99.90
55036;DHT22;40936;53.008;6.556;2022-10-31T17:42:40;17.80;1.00
55036;DHT22;40936;53.008;6.556;2022-10-31T17:45:07;17.80;99.90
55036;DHT22;40936;53.008;6.556;2022-10-31T17:47:33;17.80;1.00
55036;DHT22;40936;53.008;6.556;2022-10-31T17:50:00;17.80;99.90
55036;DHT22;40936;53.008;6.556;2022-10-31T17:52:25;17.80;99.90
55036;DHT22;40936;53.008;6.556;2022-10-31T17:54:51;17.80;99.90
55036;DHT22;40936;53.008;6.556;2022-10-31T17:57:17;17.80;1.00
55036;DHT22;40936;53.008;6.556;2022-10-31T17:59:42;17.80;1.00
55036;DHT22;40936;53.008;6.556;2022-10-31T18:02:09;17.80;1.00
55036;DHT22;40936;53.008;6.556;2022-10-31T18:04:36;17.80;1.00
55036;DHT22;40936;53.008;6.556;2022-10-31T18:07:02;17.80;1.00
55036;DHT22;40936;53.008;6.556;2022-10-31T18:09:28;17.80;1.00
55036;DHT22;40936;53.008;6.556;2022-10-31T18:11:54;17.80;1.00
55036;DHT22;40936;53.008;6.556;2022-10-31T18:14:19;17.80;1.00
55036;DHT22;40936;53.008;6.556;2022-10-31T18:16:45;17.80;1.00
55036;DHT22;40936;53.008;6.556;2022-10-31T18:19:13;17.80;1.00